Time;durP1;ratioP1;P1;durP2;ratioP2;P2;SDS_P1;SDS_P2;PMS_P1;PMS_P2;Temp;Humidity;BMP_temperature;BMP_pressure;BME280_temperature;BME280_humidity;BME280_pressure;Samples;Min_cycle;Max_cycle;Signal;HPM_P1;HPM_P2
2023/12/10 00:01:59;;;;;;;3.30;1.70;;;;;;;6.53;100.00;98843.59;7387917;19;20365;-60
2023/12/10 00:04:26;;;;;;;3.33;1.63;;;;;;;6.58;100.00;98842.19;7392159;19;20662;-59
2023/12/10 00:06:55;;;;;;;2.55;1.50;;;;;;;6.62;100.00;98843.44;7394551;19;20356;-59
2023/12/10 00:09:22;;;;;;;3.63;1.50;;;;;;;6.68;100.00;98853.22;7398667;19;20360;-60
2023/12/10 00:11:49;;;;;;;2.78;1.60;;;;;;;6.74;100.00;98853.25;7399546;19;20490;-59
2023/12/10 00:14:16;;;;;;;5.33;1.97;;;;;;;6.78;100.00;98858.94;7393361;19;20784;-59
2023/12/10 00:16:43;;;;;;;4.78;1.90;;;;;;;6.84;100.00;98852.06;7397668;19;20770;-60
2023/12/10 00:19:10;;;;;;;3.22;1.80;;;;;;;6.88;100.00;98858.56;7398688;19;20569;-60
2023/12/10 00:21:38;;;;;;;4.75;2.10;;;;;;;6.93;100.00;98859.59;7398319;19;20375;-60
2023/12/10 00:24:06;;;;;;;4.22;1.80;;;;;;;7.01;100.00;98865.72;7399078;19;20368;-59
2023/12/10 00:26:32;;;;;;;6.78;2.20;;;;;;;7.09;100.00;98860.28;7398181;19;20773;-59
2023/12/10 00:28:59;;;;;;;5.68;2.20;;;;;;;7.13;100.00;98874.69;7398278;19;21034;-60
2023/12/10 00:31:26;;;;;;;7.15;2.05;;;;;;;7.23;100.00;98883.03;7398015;19;20352;-60
2023/12/10 00:33:53;;;;;;;5.50;2.38;;;;;;;7.28;100.00;98888.53;7395246;19;20416;-61
2023/12/10 00:36:20;;;;;;;4.78;2.22;;;;;;;7.34;100.00;98890.38;7398263;19;20328;-60
2023/12/10 00:38:47;;;;;;;8.57;2.63;;;;;;;7.40;100.00;98887.97;7398023;19;20352;-62
2023/12/10 00:41:15;;;;;;;6.63;2.60;;;;;;;7.40;100.00;98890.63;7397421;19;20364;-60
2023/12/10 00:43:42;;;;;;;6.97;2.60;;;;;;;7.44;100.00;98899.72;7397157;19;20358;-59
2023/12/10 00:46:10;;;;;;;8.35;2.85;;;;;;;7.49;100.00;98905.25;7398392;19;20372;-59
2023/12/10 00:48:37;;;;;;;10.10;3.13;;;;;;;7.49;100.00;98908.69;7397851;19;20885;-60
2023/12/10 00:51:05;;;;;;;10.70;3.80;;;;;;;7.55;100.00;98904.44;7397374;19;20388;-58
2023/12/10 00:53:32;;;;;;;10.07;3.50;;;;;;;7.60;100.00;98914.41;7396537;19;20364;-60
2023/12/10 00:55:58;;;;;;;11.70;4.20;;;;;;;7.65;100.00;98915.44;7397601;19;20377;-58
2023/12/10 00:58:25;;;;;;;11.45;3.70;;;;;;;7.68;100.00;98912.38;7397172;19;20360;-61
2023/12/10 01:00:52;;;;;;;10.80;4.00;;;;;;;7.81;100.00;98921.34;7397615;19;20364;-60
2023/12/10 01:03:19;;;;;;;12.37;4.00;;;;;;;7.87;100.00;98917.91;7395019;19;20397;-60
2023/12/10 01:05:46;;;;;;;14.38;3.78;;;;;;;7.96;100.00;98928.06;7397655;19;20377;-59
2023/12/10 01:08:13;;;;;;;15.70;4.10;;;;;;;8.01;100.00;98924.00;7396437;19;20372;-60
2023/12/10 01:10:40;;;;;;;17.63;4.82;;;;;;;8.11;100.00;98933.16;7396054;19;20713;-60
2023/12/10 01:13:08;;;;;;;20.17;5.15;;;;;;;8.21;100.00;98945.16;7395309;19;20365;-61
2023/12/10 01:15:34;;;;;;;19.85;5.32;;;;;;;8.29;100.00;98956.34;7396910;19;20400;-60
2023/12/10 01:18:02;;;;;;;17.40;4.65;;;;;;;8.40;100.00;98952.28;7395373;19;20369;-61
2023/12/10 01:20:30;;;;;;;20.02;4.65;;;;;;;8.50;100.00;98955.38;7396879;19;20436;-60
2023/12/10 01:22:58;;;;;;;18.73;4.45;;;;;;;8.56;100.00;98972.22;7395957;19;20364;-61
2023/12/10 01:25:25;;;;;;;11.70;3.85;;;;;;;8.64;100.00;98968.56;7396539;19;21042;-60
2023/12/10 01:27:53;;;;;;;18.52;4.55;;;;;;;8.69;100.00;98976.69;7395471;19;20404;-60
2023/12/10 01:30:23;;;;;;;16.30;4.50;;;;;;;8.71;100.00;98979.94;7395222;19;20869;-61
2023/12/10 01:32:52;;;;;;;17.67;3.95;;;;;;;8.78;100.00;98992.13;7396355;19;20776;-61
2023/12/10 01:35:20;;;;;;;19.58;4.03;;;;;;;8.83;100.00;98982.78;7394480;19;20432;-61
2023/12/10 01:37:47;;;;;;;15.10;3.97;;;;;;;8.86;100.00;98999.06;7396213;19;20477;-60
2023/12/10 01:40:15;;;;;;;14.88;3.10;;;;;;;8.90;99.96;99000.25;7396192;19;20417;-60
2023/12/10 01:42:42;;;;;;;13.23;3.73;;;;;;;8.94;99.74;99001.47;7395185;19;20428;-58
2023/12/10 01:45:09;;;;;;;18.42;4.35;;;;;;;8.96;99.30;99009.19;7396167;19;20369;-60
2023/12/10 01:47:40;;;;;;;18.45;3.88;;;;;;;9.01;99.07;99011.22;7393687;19;20412;-60
2023/12/10 01:50:11;;;;;;;13.93;3.60;;;;;;;9.07;98.60;99015.69;7394935;19;20396;-61
2023/12/10 01:52:47;;;;;;;13.73;4.00;;;;;;;9.05;98.18;99029.09;7393354;19;20458;-61
2023/12/10 01:55:15;;;;;;;17.10;4.18;;;;;;;9.09;97.63;99026.88;7394034;19;20748;-60
2023/12/10 01:57:42;;;;;;;21.00;4.27;;;;;;;9.12;97.42;99035.22;7394443;19;20458;-60
2023/12/10 02:00:09;;;;;;;20.45;4.25;;;;;;;9.12;97.21;99029.13;7396248;19;20361;-60
2023/12/10 02:02:40;;;;;;;20.83;3.88;;;;;;;9.16;96.48;99044.38;7394808;19;20405;-60
2023/12/10 02:05:08;;;;;;;13.38;3.42;;;;;;;9.17;95.76;99048.63;7394359;19;20368;-60
2023/12/10 02:07:36;;;;;;;17.70;4.30;;;;;;;9.21;95.55;99059.63;7393999;19;20376;-60
2023/12/10 02:10:05;;;;;;;14.45;4.05;;;;;;;9.21;95.11;99054.34;7395027;19;20415;-60
2023/12/10 02:12:36;;;;;;;16.50;3.78;;;;;;;9.19;94.52;99056.38;7393282;19;20364;-59
2023/12/10 02:15:16;;;;;;;16.75;3.50;;;;;;;9.22;94.39;99050.66;7393553;19;20460;-60
2023/12/10 02:17:44;;;;;;;15.27;3.65;;;;;;;9.26;94.21;99053.72;7393919;19;20361;-61
2023/12/10 02:20:12;;;;;;;16.95;3.92;;;;;;;9.23;93.64;99062.88;7393657;19;20365;-58
2023/12/10 02:22:51;;;;;;;13.23;4.07;;;;;;;9.22;93.46;99071.81;7393349;19;20325;-59
2023/12/10 02:25:30;;;;;;;18.17;4.22;;;;;;;9.23;92.87;99068.16;7394786;19;20440;-59
2023/12/10 02:27:57;;;;;;;20.10;4.60;;;;;;;9.24;92.70;99069.78;7393855;19;20888;-59
2023/12/10 02:30:25;;;;;;;18.05;4.22;;;;;;;9.20;92.55;99079.16;7393863;19;20673;-59
2023/12/10 02:32:52;;;;;;;16.00;3.90;;;;;;;9.19;92.33;99080.19;7393391;19;20365;-60
2023/12/10 02:35:19;;;;;;;17.98;4.28;;;;;;;9.21;92.30;99077.34;7392214;19;20935;-59
2023/12/10 02:37:46;;;;;;;20.60;4.40;;;;;;;9.14;91.98;99095.88;7388413;19;20349;-60
2023/12/10 02:40:13;;;;;;;20.92;4.93;;;;;;;9.13;91.92;99099.50;7392203;19;20365;-60
2023/12/10 02:42:40;;;;;;;23.08;4.75;;;;;;;9.10;91.87;99099.94;7391516;19;20371;-60
2023/12/10 02:45:07;;;;;;;19.88;4.60;;;;;;;9.05;91.31;99099.72;7392109;19;20373;-59
2023/12/10 02:47:35;;;;;;;22.70;4.38;;;;;;;9.03;91.13;99107.03;7392559;19;20420;-60
2023/12/10 02:50:02;;;;;;;20.67;4.90;;;;;;;9.02;90.88;99103.59;7393912;19;20760;-61
2023/12/10 02:52:29;;;;;;;23.40;5.30;;;;;;;9.02;91.06;99108.06;7393159;19;20364;-59
2023/12/10 02:54:56;;;;;;;24.05;4.93;;;;;;;8.95;90.75;99103.59;7392576;19;20363;-60
2023/12/10 02:57:23;;;;;;;20.48;4.53;;;;;;;8.92;90.79;99113.75;7392762;19;20450;-60
2023/12/10 02:59:50;;;;;;;16.52;4.38;;;;;;;8.91;90.62;99112.94;7394117;19;20718;-59
2023/12/10 03:02:17;;;;;;;22.70;5.13;;;;;;;8.93;90.67;99125.97;7391606;19;20367;-58
2023/12/10 03:04:43;;;;;;;22.60;4.93;;;;;;;8.96;90.13;99130.84;7393335;19;20436;-60
2023/12/10 03:07:10;;;;;;;22.87;5.53;;;;;;;9.01;90.37;99130.25;7393300;19;20482;-58
2023/12/10 03:09:37;;;;;;;22.52;5.03;;;;;;;9.02;90.17;99132.69;7393418;19;20924;-61
2023/12/10 03:12:05;;;;;;;21.73;4.60;;;;;;;9.06;89.91;99146.34;7393004;19;20440;-58
2023/12/10 03:14:31;;;;;;;19.30;5.00;;;;;;;9.08;89.57;99152.22;7392542;19;20401;-61
2023/12/10 03:16:58;;;;;;;22.55;5.53;;;;;;;9.11;89.42;99139.41;7391916;19;20496;-58
2023/12/10 03:19:25;;;;;;;23.83;5.10;;;;;;;9.16;88.77;99154.69;7393622;19;20436;-59
2023/12/10 03:21:52;;;;;;;23.25;5.45;;;;;;;9.22;88.39;99148.53;7393367;19;20397;-59
2023/12/10 03:24:19;;;;;;;19.88;5.30;;;;;;;9.28;88.53;99139.00;7390155;19;20415;-59
2023/12/10 03:26:46;;;;;;;26.20;6.40;;;;;;;9.34;88.58;99141.63;7392302;19;20820;-60
2023/12/10 03:29:13;;;;;;;20.95;5.45;;;;;;;9.32;88.37;99148.97;7393036;19;20379;-59
2023/12/10 03:31:40;;;;;;;21.63;5.63;;;;;;;9.33;88.06;99147.16;7393634;19;20352;-61
2023/12/10 03:34:06;;;;;;;22.10;5.20;;;;;;;9.32;88.17;99153.44;7391327;19;20360;-59
2023/12/10 03:36:33;;;;;;;24.55;5.35;;;;;;;9.27;88.10;99153.25;7392566;19;20846;-57
2023/12/10 03:39:00;;;;;;;23.48;4.95;;;;;;;9.34;88.54;99146.13;7392115;19;20395;-58
2023/12/10 03:41:27;;;;;;;19.67;4.78;;;;;;;9.30;88.16;99148.34;7394388;19;20708;-60
2023/12/10 03:43:54;;;;;;;24.05;4.40;;;;;;;9.29;88.21;99144.09;7400032;19;20436;-57
2023/12/10 03:46:21;;;;;;;22.23;4.90;;;;;;;9.27;88.32;99154.06;7399923;19;20369;-60
2023/12/10 03:48:47;;;;;;;22.42;5.57;;;;;;;9.25;88.31;99150.81;7399935;19;20384;-60
2023/12/10 03:51:15;;;;;;;19.83;4.95;;;;;;;9.23;88.25;99150.19;7397213;19;21009;-57
2023/12/10 03:53:41;;;;;;;24.95;5.80;;;;;;;9.23;88.62;99160.78;7400292;19;20382;-61
2023/12/10 03:56:09;;;;;;;23.27;5.35;;;;;;;9.27;88.82;99155.91;7396964;19;20365;-59
2023/12/10 03:58:36;;;;;;;22.33;5.65;;;;;;;9.24;88.74;99159.75;7399687;19;20399;-60
2023/12/10 04:01:03;;;;;;;21.00;5.00;;;;;;;9.24;88.55;99159.75;7399162;19;20872;-58
2023/12/10 04:03:30;;;;;;;23.65;5.88;;;;;;;9.22;89.13;99156.47;7395151;19;20371;-59
2023/12/10 04:05:57;;;;;;;24.90;5.95;;;;;;;9.23;89.09;99163.41;7399811;19;20380;-59
2023/12/10 04:08:24;;;;;;;26.33;6.78;;;;;;;9.23;89.24;99158.13;7398885;19;20364;-58
2023/12/10 04:10:51;;;;;;;25.00;5.77;;;;;;;9.19;89.52;99163.00;7398011;19;20351;-59
2023/12/10 04:13:17;;;;;;;19.75;5.30;;;;;;;9.12;89.39;99182.56;7399125;19;20365;-59
2023/12/10 04:15:44;;;;;;;23.98;4.95;;;;;;;9.15;89.09;99160.97;7396724;19;20377;-61
2023/12/10 04:18:11;;;;;;;19.87;5.27;;;;;;;9.13;89.34;99178.88;7399399;19;20394;-58
2023/12/10 04:20:38;;;;;;;18.45;5.15;;;;;;;9.14;89.58;99191.09;7397141;19;20413;-61
2023/12/10 04:23:05;;;;;;;20.40;6.03;;;;;;;9.14;90.41;99196.41;7398793;19;20371;-60
2023/12/10 04:25:32;;;;;;;19.67;5.80;;;;;;;9.14;90.82;99170.75;7399194;19;20440;-60
2023/12/10 04:27:59;;;;;;;26.45;5.38;;;;;;;9.13;91.40;99181.53;7396597;19;20356;-59
2023/12/10 04:30:26;;;;;;;25.02;6.15;;;;;;;9.06;92.36;99183.38;7397511;19;20344;-60
2023/12/10 04:32:53;;;;;;;22.42;6.15;;;;;;;9.01;92.70;99191.06;7397607;19;20355;-61
2023/12/10 04:35:20;;;;;;;21.55;5.68;;;;;;;8.88;93.75;99200.63;7396213;19;20876;-62
2023/12/10 04:37:47;;;;;;;21.80;5.07;;;;;;;8.81;94.16;99191.84;7397789;19;20353;-62
2023/12/10 04:40:14;;;;;;;23.55;5.47;;;;;;;8.77;94.78;99191.44;7397107;19;20388;-62
2023/12/10 04:42:41;;;;;;;23.25;5.95;;;;;;;8.70;95.11;99190.63;7397621;19;20364;-62
2023/12/10 04:45:09;;;;;;;20.53;5.30;;;;;;;8.66;96.12;99183.28;7397106;19;20516;-63
2023/12/10 04:47:36;;;;;;;23.05;6.35;;;;;;;8.59;96.31;99171.88;7396116;19;20380;-62
2023/12/10 04:50:03;;;;;;;20.48;6.05;;;;;;;8.53;96.87;99179.59;7397547;19;20353;-62
2023/12/10 04:52:30;;;;;;;24.95;6.88;;;;;;;8.57;96.87;99180.81;7395565;19;20425;-62
2023/12/10 04:54:58;;;;;;;22.40;5.88;;;;;;;8.53;97.25;99186.72;7394993;19;20348;-63
2023/12/10 04:57:26;;;;;;;23.88;6.70;;;;;;;8.53;97.47;99174.28;7396811;19;20380;-62
2023/12/10 04:59:53;;;;;;;23.10;5.60;;;;;;;8.49;97.74;99183.63;7397124;19;20436;-62
2023/12/10 05:02:20;;;;;;;19.23;5.40;;;;;;;8.44;98.10;99178.16;7396357;19;20389;-63
2023/12/10 05:04:47;;;;;;;23.73;5.55;;;;;;;8.44;98.37;99175.50;7395597;19;20349;-63
2023/12/10 05:07:14;;;;;;;20.90;5.88;;;;;;;8.42;98.51;99198.66;7394350;19;20436;-63
2023/12/10 05:09:41;;;;;;;20.77;4.97;;;;;;;8.41;98.82;99185.66;7397039;19;20402;-63
2023/12/10 05:12:08;;;;;;;24.73;5.68;;;;;;;8.38;99.00;99190.28;7396080;19;20390;-63
2023/12/10 05:14:35;;;;;;;19.07;5.80;;;;;;;8.35;99.19;99188.03;7394976;19;20416;-63
2023/12/10 05:17:02;;;;;;;20.63;6.30;;;;;;;8.36;98.82;99189.66;7394676;19;20728;-63
2023/12/10 05:19:28;;;;;;;19.92;6.85;;;;;;;8.36;99.00;99183.56;7395227;19;20375;-63
2023/12/10 05:21:55;;;;;;;22.70;5.53;;;;;;;8.34;98.72;99183.75;7395791;19;20349;-62
2023/12/10 05:24:22;;;;;;;21.60;6.20;;;;;;;8.38;98.25;99187.63;7394916;19;20461;-62
2023/12/10 05:26:49;;;;;;;20.33;5.32;;;;;;;8.40;98.26;99190.09;7394409;19;20372;-62
2023/12/10 05:29:16;;;;;;;18.95;5.03;;;;;;;8.36;98.11;99186.22;7395191;19;20379;-63
2023/12/10 05:31:43;;;;;;;18.83;5.93;;;;;;;8.38;97.82;99185.00;7395995;19;20352;-62
2023/12/10 05:34:10;;;;;;;17.85;5.68;;;;;;;8.40;97.82;99184.81;7397144;19;20344;-62
2023/12/10 05:36:37;;;;;;;15.82;4.95;;;;;;;8.39;97.16;99196.38;7394950;19;20374;-62
2023/12/10 05:39:03;;;;;;;18.98;5.70;;;;;;;8.48;97.06;99184.66;7396832;19;20724;-61
2023/12/10 05:41:30;;;;;;;14.63;4.45;;;;;;;8.45;96.33;99198.25;7395169;19;20420;-62
2023/12/10 05:43:57;;;;;;;17.05;5.00;;;;;;;8.46;96.39;99189.34;7396436;19;20376;-62
2023/12/10 05:46:24;;;;;;;21.75;4.75;;;;;;;8.50;96.04;99198.50;7396571;19;20706;-60
2023/12/10 05:48:51;;;;;;;15.55;4.82;;;;;;;8.51;95.70;99205.41;7397061;19;20360;-62
2023/12/10 05:51:17;;;;;;;16.33;4.60;;;;;;;8.52;95.14;99199.13;7395820;19;20333;-62
2023/12/10 05:53:45;;;;;;;13.90;4.55;;;;;;;8.53;94.47;99206.00;7395680;19;20356;-62
2023/12/10 05:56:12;;;;;;;11.75;3.58;;;;;;;8.55;92.90;99205.81;7395256;19;20368;-62
2023/12/10 05:58:39;;;;;;;14.77;3.30;;;;;;;8.59;92.58;99199.13;7395376;19;20369;-63
2023/12/10 06:01:05;;;;;;;10.00;3.03;;;;;;;8.61;91.96;99201.56;7393575;19;20377;-64
2023/12/10 06:03:32;;;;;;;12.90;3.97;;;;;;;8.61;91.38;99201.56;7393229;19;20377;-63
2023/12/10 06:06:00;;;;;;;11.88;3.67;;;;;;;8.65;90.77;99200.16;7394508;19;20357;-63
2023/12/10 06:08:27;;;;;;;13.52;3.72;;;;;;;8.62;90.90;99192.63;7395418;19;20373;-63
2023/12/10 06:10:54;;;;;;;14.13;2.95;;;;;;;8.68;90.97;99199.75;7394212;19;20340;-62
2023/12/10 06:13:21;;;;;;;13.10;3.72;;;;;;;8.74;90.97;99212.19;7395476;19;20405;-63
2023/12/10 06:15:48;;;;;;;10.40;2.90;;;;;;;8.68;91.05;99210.34;7392840;19;20711;-63
2023/12/10 06:18:15;;;;;;;11.07;3.95;;;;;;;8.66;91.58;99209.72;7395411;19;20357;-63
2023/12/10 06:20:42;;;;;;;12.82;2.60;;;;;;;8.61;91.55;99214.78;7396299;19;20419;-63
2023/12/10 06:23:09;;;;;;;10.60;3.22;;;;;;;8.50;91.87;99227.56;7394333;19;20782;-64
2023/12/10 06:25:35;;;;;;;8.75;2.75;;;;;;;8.48;92.38;99219.03;7395792;19;20361;-64
2023/12/10 06:28:03;;;;;;;12.55;3.72;;;;;;;8.44;92.63;99228.34;7395960;19;20353;-64
2023/12/10 06:30:29;;;;;;;12.03;4.23;;;;;;;8.37;93.44;99222.16;7394371;19;20333;-63
2023/12/10 06:32:56;;;;;;;9.88;2.47;;;;;;;8.31;93.06;99228.28;7393797;19;20373;-67
2023/12/10 06:35:23;;;;;;;9.95;2.47;;;;;;;8.24;93.33;99238.78;7393680;19;20381;-65
2023/12/10 06:37:50;;;;;;;8.20;2.20;;;;;;;8.14;93.67;99236.50;7394500;19;20420;-65
2023/12/10 06:40:17;;;;;;;7.57;2.28;;;;;;;8.08;93.88;99216.16;7394215;19;20394;-66
2023/12/10 06:42:44;;;;;;;7.13;2.33;;;;;;;8.08;94.44;99221.44;7394239;19;20418;-66
2023/12/10 06:45:12;;;;;;;8.63;2.40;;;;;;;8.03;94.58;99242.31;7392858;19;20400;-66
2023/12/10 06:47:40;;;;;;;6.82;2.00;;;;;;;7.95;94.52;99277.63;7393003;19;20369;-66
2023/12/10 06:50:08;;;;;;;8.23;3.05;;;;;;;7.89;94.89;99288.97;7389700;19;20350;-66
2023/12/10 06:52:35;;;;;;;8.82;3.17;;;;;;;7.84;95.94;99240.38;7392992;19;20352;-66
2023/12/10 06:55:02;;;;;;;7.32;2.20;;;;;;;7.80;95.68;99247.03;7394701;19;20360;-66
2023/12/10 06:57:29;;;;;;;8.20;2.00;;;;;;;7.74;96.43;99249.47;7388409;19;20384;-66
2023/12/10 06:59:56;;;;;;;6.88;2.42;;;;;;;7.68;96.63;99254.69;7392220;19;20356;-66
2023/12/10 07:02:23;;;;;;;8.55;2.40;;;;;;;7.66;97.57;99254.88;7392135;19;20389;-66
2023/12/10 07:04:49;;;;;;;8.73;2.80;;;;;;;7.61;98.13;99254.63;7393582;19;20384;-67
2023/12/10 07:07:16;;;;;;;7.70;2.83;;;;;;;7.55;99.08;99260.69;7391220;19;20372;-66
2023/12/10 07:09:43;;;;;;;7.10;2.30;;;;;;;7.47;98.74;99252.88;7393532;19;20440;-67
2023/12/10 07:12:10;;;;;;;9.50;2.73;;;;;;;7.49;99.23;99266.72;7391621;19;20415;-67
2023/12/10 07:14:37;;;;;;;6.97;2.65;;;;;;;7.48;99.24;99275.63;7393723;19;20903;-67
2023/12/10 07:17:04;;;;;;;5.87;2.00;;;;;;;7.46;99.21;99275.00;7389800;19;20411;-66
2023/12/10 07:19:31;;;;;;;8.82;2.38;;;;;;;7.45;99.22;99276.81;7393572;19;20352;-67
2023/12/10 07:21:58;;;;;;;9.77;3.40;;;;;;;7.48;99.58;99276.47;7392712;19;20346;-66
2023/12/10 07:24:25;;;;;;;8.18;2.80;;;;;;;7.46;99.24;99309.28;7392586;19;20368;-65
2023/12/10 07:26:52;;;;;;;9.35;2.58;;;;;;;7.49;99.59;99277.25;7389670;19;20344;-65
2023/12/10 07:29:18;;;;;;;8.90;2.75;;;;;;;7.47;99.71;99279.28;7387501;19;20356;-65
2023/12/10 07:31:45;;;;;;;6.63;2.30;;;;;;;7.49;100.00;99283.34;7390476;19;20402;-65
2023/12/10 07:34:12;;;;;;;7.55;2.10;;;;;;;7.48;100.00;99276.47;7392886;19;20364;-65
2023/12/10 07:36:39;;;;;;;6.30;1.80;;;;;;;7.48;100.00;99280.91;7387965;19;20352;-65
2023/12/10 07:39:07;;;;;;;6.85;2.08;;;;;;;7.44;100.00;99277.00;7390189;19;20418;-64
2023/12/10 07:41:34;;;;;;;8.48;2.70;;;;;;;7.48;99.99;99286.16;7392341;19;20890;-65
2023/12/10 07:44:01;;;;;;;6.82;1.90;;;;;;;7.49;99.83;99283.34;7392593;19;20693;-65
2023/12/10 07:46:28;;;;;;;6.10;1.52;;;;;;;7.47;99.56;99290.63;7392012;19;20696;-65
2023/12/10 07:48:55;;;;;;;6.70;1.90;;;;;;;7.45;99.79;99286.56;7393117;19;20343;-65
2023/12/10 07:51:22;;;;;;;7.50;1.55;;;;;;;7.45;99.81;99286.56;7391219;19;20701;-64
2023/12/10 07:53:50;;;;;;;6.55;1.90;;;;;;;7.44;99.49;99290.19;7391672;19;20377;-64
2023/12/10 07:56:16;;;;;;;7.80;1.92;;;;;;;7.49;99.42;99287.81;7391751;19;20459;-65
2023/12/10 07:58:43;;;;;;;8.95;2.10;;;;;;;7.55;98.96;99282.59;7390731;19;20356;-64
2023/12/10 08:01:10;;;;;;;8.40;2.50;;;;;;;7.60;98.86;99295.22;7392815;19;20342;-64
2023/12/10 08:03:37;;;;;;;7.60;1.90;;;;;;;7.56;98.71;99288.69;7390304;19;20707;-64
2023/12/10 08:06:04;;;;;;;6.43;2.03;;;;;;;7.66;98.56;99309.47;7391903;19;20352;-63
2023/12/10 08:08:31;;;;;;;6.30;2.15;;;;;;;7.66;98.37;99301.56;7391056;19;20451;-65
2023/12/10 08:10:58;;;;;;;6.70;1.88;;;;;;;7.69;98.23;99293.25;7392539;19;20356;-64
2023/12/10 08:13:25;;;;;;;6.63;1.67;;;;;;;7.71;98.23;99293.88;7391461;19;20386;-64
2023/12/10 08:15:52;;;;;;;6.05;2.35;;;;;;;7.69;98.08;99307.28;7389321;19;20379;-64
2023/12/10 08:18:18;;;;;;;8.23;2.25;;;;;;;7.72;97.98;99301.63;7390799;19;20359;-64
2023/12/10 08:20:45;;;;;;;7.00;1.80;;;;;;;7.74;97.45;99312.81;7391536;19;20479;-64
2023/12/10 08:23:12;;;;;;;6.45;2.40;;;;;;;7.78;97.39;99325.63;7391800;19;20364;-64
2023/12/10 08:25:39;;;;;;;5.72;2.00;;;;;;;7.85;97.03;99303.53;7391186;19;20878;-64
2023/12/10 08:28:06;;;;;;;8.90;2.27;;;;;;;7.87;96.39;99303.38;7395569;19;20399;-64
2023/12/10 08:30:33;;;;;;;6.90;2.10;;;;;;;7.91;96.60;99341.59;7398189;19;20393;-64
2023/12/10 08:32:59;;;;;;;6.22;2.45;;;;;;;7.95;96.73;99321.72;7398529;19;20389;-64
2023/12/10 08:35:26;;;;;;;8.23;2.13;;;;;;;7.95;95.92;99327.00;7397432;19;20429;-64
2023/12/10 08:37:53;;;;;;;10.57;3.30;;;;;;;7.98;95.95;99321.31;7396083;19;20385;-64
2023/12/10 08:40:20;;;;;;;7.70;3.00;;;;;;;8.01;96.18;99315.66;7398398;19;20375;-65
2023/12/10 08:42:47;;;;;;;7.03;2.00;;;;;;;8.01;97.18;99317.47;7398040;19;20438;-64
2023/12/10 08:45:14;;;;;;;10.15;3.83;;;;;;;7.98;97.89;99310.75;7398197;19;20357;-66
2023/12/10 08:47:41;;;;;;;7.05;2.38;;;;;;;7.92;98.08;99319.44;7397655;19;20714;-65
2023/12/10 08:50:08;;;;;;;6.22;1.92;;;;;;;7.87;98.39;99321.84;7397717;19;20368;-66
2023/12/10 08:52:35;;;;;;;7.47;2.08;;;;;;;7.86;98.72;99320.19;7396066;19;20344;-66
2023/12/10 08:55:02;;;;;;;7.90;2.20;;;;;;;7.80;99.19;99321.78;7397743;19;20694;-66
2023/12/10 08:57:29;;;;;;;9.55;2.55;;;;;;;7.80;99.40;99310.41;7395613;19;20445;-66
2023/12/10 09:00:00;;;;;;;8.10;2.20;;;;;;;7.81;99.87;99343.72;7398063;19;20363;-66
2023/12/10 09:02:27;;;;;;;7.53;2.40;;;;;;;7.81;100.00;99338.44;7396272;19;20380;-66
2023/12/10 09:04:55;;;;;;;7.70;2.75;;;;;;;7.83;100.00;99342.53;7397181;19;20738;-67
2023/12/10 09:07:22;;;;;;;9.07;3.38;;;;;;;7.80;100.00;99329.72;7385465;19;20709;-67
2023/12/10 09:09:49;;;;;;;7.60;3.10;;;;;;;7.78;100.00;99338.81;7392613;19;20405;-67
2023/12/10 09:12:27;;;;;;;7.70;2.25;;;;;;;7.73;99.84;99340.19;7395725;19;20365;-66
2023/12/10 09:14:55;;;;;;;9.35;3.00;;;;;;;7.82;100.00;99326.88;7394826;19;20352;-66
2023/12/10 09:17:22;;;;;;;6.78;3.00;;;;;;;7.78;99.90;99334.38;7395043;19;20898;-67
2023/12/10 09:19:49;;;;;;;8.63;2.97;;;;;;;7.82;99.46;99362.03;7396044;19;20347;-67
2023/12/10 09:22:16;;;;;;;9.60;2.70;;;;;;;7.81;99.14;99343.72;7395523;19;20328;-67
2023/12/10 09:24:43;;;;;;;8.05;2.30;;;;;;;7.86;98.62;99346.59;7396263;19;20346;-67
2023/12/10 09:27:10;;;;;;;9.80;2.80;;;;;;;7.93;98.97;99348.31;7394801;19;20672;-66
2023/12/10 09:29:41;;;;;;;8.73;3.05;;;;;;;7.94;98.67;99338.53;7395949;19;20419;-67
2023/12/10 09:32:08;;;;;;;7.65;2.20;;;;;;;8.03;98.63;99361.16;7395345;19;20357;-67
2023/12/10 09:34:35;;;;;;;6.97;1.70;;;;;;;8.02;98.50;99346.34;7394905;19;20332;-67
2023/12/10 09:37:03;;;;;;;9.02;2.13;;;;;;;8.06;98.46;99368.72;7392131;19;20368;-67
2023/12/10 09:39:31;;;;;;;5.50;1.70;;;;;;;8.09;98.02;99378.06;7392644;19;20357;-67
2023/12/10 09:41:58;;;;;;;6.18;1.60;;;;;;;8.12;97.97;99370.59;7396475;19;20540;-67
2023/12/10 09:44:24;;;;;;;6.07;1.45;;;;;;;8.18;97.36;99350.50;7392814;19;21003;-67
2023/12/10 09:46:51;;;;;;;6.60;1.58;;;;;;;8.22;97.92;99356.22;7392296;19;20347;-67
2023/12/10 09:49:20;;;;;;;7.35;2.00;;;;;;;8.25;97.64;99353.22;7394900;19;20429;-67
2023/12/10 09:51:47;;;;;;;7.22;1.80;;;;;;;8.26;97.54;99376.78;7390407;19;20393;-67
2023/12/10 09:54:14;;;;;;;7.82;1.83;;;;;;;8.31;97.83;99365.66;7393588;19;20360;-67
2023/12/10 09:56:44;;;;;;;6.50;1.67;;;;;;;8.33;98.11;99385.59;7391758;19;21377;-67
2023/12/10 09:59:11;;;;;;;5.22;1.40;;;;;;;8.37;98.07;99370.16;7394329;19;20377;-67
2023/12/10 10:01:38;;;;;;;7.03;1.60;;;;;;;8.42;97.94;99394.22;7392975;19;20367;-67
2023/12/10 10:04:04;;;;;;;6.18;1.55;;;;;;;8.42;97.47;99396.03;7393524;19;20381;-67
2023/12/10 10:06:32;;;;;;;6.57;1.77;;;;;;;8.42;97.39;99391.56;7392269;19;20398;-64
2023/12/10 10:08:59;;;;;;;6.60;1.67;;;;;;;8.46;97.63;99386.69;7386535;19;20363;-65
2023/12/10 10:11:26;;;;;;;5.15;1.40;;;;;;;8.44;97.70;99384.25;7391646;19;20377;-65
2023/12/10 10:13:53;;;;;;;5.57;1.48;;;;;;;8.46;98.10;99390.19;7385706;19;20381;-65
2023/12/10 10:16:20;;;;;;;7.28;1.88;;;;;;;8.42;97.34;99385.47;7384587;19;20397;-67
2023/12/10 10:18:47;;;;;;;6.55;1.63;;;;;;;8.44;97.48;99407.25;7383168;19;20807;-67
2023/12/10 10:21:15;;;;;;;5.80;1.40;;;;;;;8.46;97.39;99400.75;7384716;19;20745;-67
2023/12/10 10:23:45;;;;;;;7.30;1.90;;;;;;;8.49;97.80;99420.69;7385714;19;20378;-67
2023/12/10 10:26:12;;;;;;;7.90;1.70;;;;;;;8.47;97.28;99434.09;7387982;19;20390;-66
2023/12/10 10:28:39;;;;;;;7.45;1.55;;;;;;;8.53;97.62;99421.94;7389511;19;20378;-66
2023/12/10 10:31:09;;;;;;;5.30;1.60;;;;;;;8.52;96.98;99436.97;7391438;19;20355;-66
2023/12/10 10:33:37;;;;;;;5.63;1.70;;;;;;;8.53;96.93;99435.97;7392881;19;20405;-65
2023/12/10 10:36:05;;;;;;;6.90;1.80;;;;;;;8.56;97.00;99438.22;7394383;19;21015;-65
2023/12/10 10:38:32;;;;;;;8.80;2.27;;;;;;;8.61;97.20;99426.22;7391340;19;20380;-65
2023/12/10 10:41:00;;;;;;;4.65;1.50;;;;;;;8.61;96.92;99439.47;7393526;19;20941;-65
2023/12/10 10:43:27;;;;;;;6.45;1.95;;;;;;;8.63;97.36;99437.44;7392234;19;20390;-65
2023/12/10 10:45:54;;;;;;;7.90;1.73;;;;;;;8.65;96.94;99444.19;7394308;19;20358;-65
2023/12/10 10:48:25;;;;;;;4.82;1.73;;;;;;;8.62;97.20;99471.00;7394407;19;20369;-65
2023/12/10 10:50:54;;;;;;;5.93;1.70;;;;;;;8.63;97.60;99443.56;7391950;19;20456;-64
2023/12/10 10:53:22;;;;;;;7.18;1.95;;;;;;;8.65;97.63;99446.84;7391815;19;20376;-65
2023/12/10 10:55:49;;;;;;;6.88;1.90;;;;;;;8.59;97.72;99452.06;7393092;19;20401;-65
2023/12/10 10:58:24;;;;;;;7.70;2.00;;;;;;;8.62;98.14;99446.38;7391858;19;20915;-65
2023/12/10 11:00:51;;;;;;;9.20;2.35;;;;;;;8.53;98.49;99464.22;7392733;19;20846;-65
2023/12/10 11:03:18;;;;;;;6.50;1.90;;;;;;;8.43;98.77;99461.09;7391459;19;20356;-65
2023/12/10 11:05:45;;;;;;;6.57;1.73;;;;;;;8.43;99.06;99476.94;7392373;19;20372;-66
2023/12/10 11:08:12;;;;;;;8.10;1.80;;;;;;;8.42;99.34;99478.78;7390452;19;20880;-63
2023/12/10 11:10:44;;;;;;;9.85;2.53;;;;;;;8.42;99.91;99455.00;7391950;19;20351;-63
2023/12/10 11:13:11;;;;;;;8.85;2.50;;;;;;;8.40;99.91;99488.69;7392756;19;20381;-63
2023/12/10 11:15:39;;;;;;;5.18;1.67;;;;;;;8.37;99.82;99474.03;7391450;19;20933;-63
2023/12/10 11:18:06;;;;;;;10.60;2.13;;;;;;;8.43;99.97;99469.81;7390730;19;20344;-63
2023/12/10 11:20:43;;;;;;;9.93;2.47;;;;;;;8.41;99.68;99477.13;7392049;19;20341;-63
2023/12/10 11:23:12;;;;;;;9.10;1.90;;;;;;;8.46;99.90;99477.38;7391182;19;20394;-63
2023/12/10 11:25:40;;;;;;;7.20;1.80;;;;;;;8.42;99.12;99505.22;7392578;19;20371;-63
2023/12/10 11:28:10;;;;;;;7.70;2.20;;;;;;;8.49;99.11;99497.31;7390912;19;20381;-63
2023/12/10 11:30:43;;;;;;;8.65;2.00;;;;;;;8.45;98.62;99481.03;7391394;19;20365;-63
2023/12/10 11:33:14;;;;;;;9.27;2.10;;;;;;;8.50;98.00;99491.88;7388367;19;20383;-63
2023/12/10 11:35:42;;;;;;;7.50;2.10;;;;;;;8.54;97.49;99514.25;7389953;19;20711;-63
2023/12/10 11:38:09;;;;;;;13.63;2.10;;;;;;;8.55;97.39;99502.66;7387192;19;20379;-63